Time;durP1;ratioP1;P1;durP2;ratioP2;P2;SDS_P1;SDS_P2;PMS_P1;PMS_P2;Temp;Humidity;BMP_temperature;BMP_pressure;BME280_temperature;BME280_humidity;BME280_pressure;Samples;Min_cycle;Max_cycle;Signal;HPM_P1;HPM_P2
2021/08/16 00:01:08;;;;;;;9.32;1.70;;;16.40;97.10;;;;;;5007579;28;20035;-86
2021/08/16 00:03:34;;;;;;;13.10;1.80;;;16.40;97.10;;;;;;5003775;28;20026;-87
2021/08/16 00:06:00;;;;;;;12.80;2.30;;;16.40;97.10;;;;;;5010927;28;20026;-86
2021/08/16 00:08:25;;;;;;;12.98;1.70;;;16.40;97.10;;;;;;5013532;28;20036;-86
2021/08/16 00:10:51;;;;;;;13.18;2.20;;;16.50;97.00;;;;;;5008342;28;20030;-86
2021/08/16 00:13:17;;;;;;;13.27;1.52;;;16.60;97.00;;;;;;5004317;28;20457;-86
2021/08/16 00:15:42;;;;;;;12.32;3.08;;;16.50;96.90;;;;;;4999000;28;20053;-86
2021/08/16 00:18:08;;;;;;;12.95;1.83;;;16.60;97.10;;;;;;5013396;28;20038;-86
2021/08/16 00:20:34;;;;;;;12.82;1.50;;;16.60;96.80;;;;;;5005633;28;20022;-86
2021/08/16 00:22:59;;;;;;;13.70;1.95;;;16.70;96.80;;;;;;4996708;28;20120;-86
2021/08/16 00:25:25;;;;;;;17.13;2.33;;;16.70;96.70;;;;;;5004010;28;20109;-86
2021/08/16 00:27:51;;;;;;;19.60;2.72;;;16.70;96.70;;;;;;5012358;28;20489;-86
2021/08/16 00:30:17;;;;;;;13.02;1.58;;;16.70;96.60;;;;;;5008694;28;20026;-86
2021/08/16 00:32:42;;;;;;;10.77;1.50;;;16.80;96.60;;;;;;5011217;28;20176;-86
2021/08/16 00:35:08;;;;;;;12.52;1.73;;;16.80;96.60;;;;;;5012014;28;20116;-86
2021/08/16 00:37:34;;;;;;;20.23;2.28;;;16.80;96.60;;;;;;5011378;28;20512;-86
2021/08/16 00:39:59;;;;;;;11.02;1.83;;;16.80;96.60;;;;;;5005407;28;20029;-86
2021/08/16 00:42:25;;;;;;;10.82;2.20;;;16.80;96.80;;;;;;5003396;28;20371;-86
2021/08/16 00:44:51;;;;;;;12.63;1.92;;;16.80;96.60;;;;;;4995130;28;20030;-86
2021/08/16 00:47:18;;;;;;;12.48;1.58;;;16.80;96.50;;;;;;5012362;28;20053;-86
2021/08/16 00:49:43;;;;;;;12.57;1.75;;;16.80;96.50;;;;;;5009027;28;20061;-86
2021/08/16 00:52:09;;;;;;;18.60;1.83;;;16.80;96.50;;;;;;5010783;28;20053;-85
2021/08/16 00:54:35;;;;;;;13.57;1.63;;;16.80;96.50;;;;;;5011653;28;20062;-86
2021/08/16 00:57:02;;;;;;;13.82;2.13;;;16.80;96.50;;;;;;5005765;28;20045;-86
2021/08/16 00:59:29;;;;;;;11.02;2.05;;;16.70;96.50;;;;;;5013911;28;20048;-85
2021/08/16 01:01:55;;;;;;;13.63;1.70;;;16.70;96.50;;;;;;5011583;28;20395;-85
2021/08/16 01:04:21;;;;;;;12.77;1.63;;;16.70;96.60;;;;;;4995145;28;20046;-85
2021/08/16 01:06:47;;;;;;;10.50;1.55;;;16.70;96.70;;;;;;5000722;28;20145;-85
2021/08/16 01:09:14;;;;;;;13.32;1.50;;;16.60;96.70;;;;;;5005390;28;20026;-85
2021/08/16 01:11:39;;;;;;;16.40;2.13;;;16.60;96.80;;;;;;5013752;28;20060;-85
2021/08/16 01:14:05;;;;;;;13.75;2.10;;;16.50;96.90;;;;;;5016154;28;20029;-85
2021/08/16 01:16:30;;;;;;;12.40;2.55;;;16.50;96.90;;;;;;5010335;28;20049;-85
2021/08/16 01:18:56;;;;;;;13.85;1.92;;;16.50;97.00;;;;;;5010341;28;20026;-85
2021/08/16 01:21:21;;;;;;;9.68;1.88;;;16.50;97.10;;;;;;5005646;28;20041;-85
2021/08/16 01:23:48;;;;;;;12.85;2.20;;;16.50;97.10;;;;;;5007632;28;20022;-86
2021/08/16 01:26:14;;;;;;;14.02;2.33;;;16.40;97.20;;;;;;5009549;28;20112;-86
2021/08/16 01:28:40;;;;;;;12.40;1.85;;;16.50;97.30;;;;;;5014231;28;20484;-86
2021/08/16 01:31:07;;;;;;;11.82;1.65;;;16.40;97.30;;;;;;5011302;28;20026;-85
2021/08/16 01:33:35;;;;;;;14.85;2.55;;;16.50;97.40;;;;;;5011218;28;20036;-85
2021/08/16 01:36:01;;;;;;;14.10;2.10;;;16.50;97.50;;;;;;4999451;28;20066;-85
2021/08/16 01:38:33;;;;;;;11.63;2.00;;;16.50;97.60;;;;;;5008962;28;20045;-85
2021/08/16 01:40:59;;;;;;;14.05;2.05;;;16.50;97.60;;;;;;5011906;28;20034;-85
2021/08/16 01:43:25;;;;;;;14.02;1.77;;;16.40;97.60;;;;;;5012478;28;20025;-85
2021/08/16 01:45:52;;;;;;;13.68;2.10;;;16.50;97.70;;;;;;5009782;28;20018;-85
2021/08/16 01:48:17;;;;;;;21.27;3.30;;;16.50;97.80;;;;;;5000741;28;20026;-85
2021/08/16 01:50:43;;;;;;;16.73;2.45;;;16.50;97.80;;;;;;5013615;28;20080;-85
2021/08/16 01:53:09;;;;;;;13.68;2.75;;;16.50;97.80;;;;;;5015332;28;20022;-85
2021/08/16 01:55:35;;;;;;;11.15;1.95;;;16.50;97.80;;;;;;5011586;28;20058;-85
2021/08/16 01:58:01;;;;;;;15.75;2.60;;;16.50;97.90;;;;;;5009513;28;20026;-85
2021/08/16 02:00:26;;;;;;;13.52;2.55;;;16.50;97.90;;;;;;5011341;28;20076;-85
2021/08/16 02:02:52;;;;;;;14.90;2.63;;;16.60;97.90;;;;;;4999592;28;20478;-85
2021/08/16 02:05:17;;;;;;;12.77;2.03;;;16.60;97.90;;;;;;5011341;28;20037;-85
2021/08/16 02:07:43;;;;;;;13.65;2.40;;;16.50;98.00;;;;;;5005505;28;20568;-85
2021/08/16 02:10:09;;;;;;;12.95;2.35;;;16.60;98.00;;;;;;5009698;28;20121;-85
2021/08/16 02:12:35;;;;;;;15.23;2.33;;;16.60;98.00;;;;;;4999788;28;20603;-85
2021/08/16 02:15:00;;;;;;;17.33;2.90;;;16.50;98.10;;;;;;5013573;28;20026;-85
2021/08/16 02:17:26;;;;;;;16.63;2.63;;;16.50;98.20;;;;;;5000770;28;20038;-85
2021/08/16 02:19:52;;;;;;;22.13;4.90;;;16.50;98.10;;;;;;5006655;28;20034;-85
2021/08/16 02:22:18;;;;;;;11.40;2.03;;;16.50;98.20;;;;;;5007874;28;20498;-85
2021/08/16 02:24:44;;;;;;;11.63;2.00;;;16.50;98.20;;;;;;5012443;28;20041;-85
2021/08/16 02:27:09;;;;;;;14.77;3.38;;;16.50;98.30;;;;;;5010360;28;20030;-85
2021/08/16 02:29:35;;;;;;;13.18;2.38;;;16.50;98.30;;;;;;5011465;28;20014;-85
2021/08/16 02:32:01;;;;;;;13.50;2.50;;;16.50;98.40;;;;;;5008483;28;20032;-85
2021/08/16 02:34:27;;;;;;;12.45;2.60;;;16.50;98.40;;;;;;5013738;28;20026;-85
2021/08/16 02:36:52;;;;;;;13.20;2.25;;;16.60;98.60;;;;;;5013534;28;20030;-85
2021/08/16 02:39:18;;;;;;;14.55;2.05;;;16.50;98.60;;;;;;5003138;28;20030;-85
2021/08/16 02:41:44;;;;;;;15.07;3.83;;;16.50;98.60;;;;;;5000051;28;20195;-85
2021/08/16 02:44:09;;;;;;;12.43;2.28;;;16.60;98.60;;;;;;4998293;28;20064;-85
2021/08/16 02:46:35;;;;;;;16.95;2.47;;;16.60;98.70;;;;;;5003667;28;20026;-86
2021/08/16 02:49:01;;;;;;;14.80;2.25;;;16.60;98.70;;;;;;5004529;28;20056;-85
2021/08/16 02:51:27;;;;;;;17.50;2.03;;;16.60;98.70;;;;;;5013390;28;20045;-85
2021/08/16 02:53:56;;;;;;;12.90;2.33;;;16.60;98.70;;;;;;5012074;28;20018;-85
2021/08/16 02:56:22;;;;;;;14.93;2.40;;;16.60;98.70;;;;;;5006543;28;20030;-87
2021/08/16 02:58:47;;;;;;;16.20;2.70;;;16.60;98.70;;;;;;5003199;28;20027;-86
2021/08/16 03:01:13;;;;;;;15.13;2.33;;;16.60;98.70;;;;;;5010141;28;20034;-86
2021/08/16 03:03:38;;;;;;;14.77;2.35;;;16.60;98.70;;;;;;5010405;28;20113;-87
2021/08/16 03:06:04;;;;;;;15.18;2.38;;;16.60;98.70;;;;;;5004509;28;20050;-86
2021/08/16 03:08:34;;;;;;;10.30;2.53;;;16.60;98.70;;;;;;5005424;28;20076;-86
2021/08/16 03:11:00;;;;;;;11.23;1.95;;;16.60;98.70;;;;;;5010826;28;20393;-86
2021/08/16 03:13:25;;;;;;;11.90;2.35;;;16.60;98.70;;;;;;5003739;28;20615;-86
2021/08/16 03:15:51;;;;;;;10.15;2.60;;;16.60;98.70;;;;;;5010451;28;20112;-86
2021/08/16 03:18:17;;;;;;;13.85;2.05;;;16.60;98.70;;;;;;5005959;28;20495;-86
2021/08/16 03:20:42;;;;;;;16.67;2.65;;;16.60;98.70;;;;;;4997836;28;20029;-86
2021/08/16 03:23:08;;;;;;;13.20;3.25;;;16.60;98.70;;;;;;5009091;28;20029;-86
2021/08/16 03:25:33;;;;;;;10.02;2.63;;;16.60;98.70;;;;;;5010376;28;20026;-86
2021/08/16 03:27:59;;;;;;;15.75;3.25;;;16.60;98.70;;;;;;5006844;28;20026;-86
2021/08/16 03:30:24;;;;;;;18.42;3.47;;;16.60;98.70;;;;;;5006922;28;20022;-86
2021/08/16 03:32:50;;;;;;;15.13;3.35;;;16.60;98.70;;;;;;5008346;28;20026;-86
2021/08/16 03:35:16;;;;;;;16.33;2.97;;;16.60;98.60;;;;;;5000168;28;20112;-86
2021/08/16 03:37:43;;;;;;;13.88;3.08;;;16.60;98.60;;;;;;5008267;28;20038;-86
2021/08/16 03:40:09;;;;;;;13.60;4.03;;;16.60;98.60;;;;;;5007779;28;20433;-86
2021/08/16 03:42:36;;;;;;;14.05;3.85;;;16.70;98.60;;;;;;5010827;28;20036;-85
2021/08/16 03:45:08;;;;;;;12.60;3.65;;;16.60;98.60;;;;;;5011745;28;20026;-87
2021/08/16 03:47:33;;;;;;;16.65;3.67;;;16.60;98.50;;;;;;5007332;28;20030;-85
2021/08/16 03:49:59;;;;;;;14.45;3.35;;;16.60;98.50;;;;;;5011305;28;20026;-86
2021/08/16 03:52:24;;;;;;;17.15;4.43;;;16.60;98.50;;;;;;5011087;28;20025;-86
2021/08/16 03:54:50;;;;;;;15.60;3.80;;;16.60;98.60;;;;;;4997906;28;20031;-86
2021/08/16 03:57:15;;;;;;;14.60;4.32;;;16.60;98.60;;;;;;5007058;28;20038;-86
2021/08/16 03:59:41;;;;;;;17.55;3.90;;;16.50;98.70;;;;;;5011665;28;20447;-86
2021/08/16 04:02:06;;;;;;;22.90;5.05;;;16.50;98.80;;;;;;5011302;28;20034;-86
2021/08/16 04:04:33;;;;;;;14.05;4.50;;;16.50;98.80;;;;;;5008205;28;20085;-86
2021/08/16 04:06:58;;;;;;;15.35;4.45;;;16.50;99.20;;;;;;5007265;28;20053;-86
2021/08/16 04:09:23;;;;;;;11.82;3.92;;;16.50;99.20;;;;;;5011330;28;20030;-86
2021/08/16 04:11:49;;;;;;;13.02;4.45;;;16.50;99.00;;;;;;5011099;28;20030;-86
2021/08/16 04:14:14;;;;;;;17.20;4.63;;;16.50;99.00;;;;;;5009300;28;20057;-86
2021/08/16 04:16:40;;;;;;;14.77;5.25;;;16.50;99.10;;;;;;5006938;28;20030;-86
2021/08/16 04:19:06;;;;;;;15.07;5.45;;;16.50;99.10;;;;;;5008555;28;20386;-85
2021/08/16 04:21:31;;;;;;;12.43;4.28;;;16.60;99.20;;;;;;5008947;28;20574;-86
2021/08/16 04:23:57;;;;;;;18.27;5.15;;;16.50;99.20;;;;;;5011688;28;20030;-86
2021/08/16 04:26:22;;;;;;;16.15;4.93;;;16.60;99.30;;;;;;5003251;28;20048;-86
2021/08/16 04:28:48;;;;;;;15.75;6.00;;;16.60;99.30;;;;;;5007020;28;20028;-85
2021/08/16 04:31:13;;;;;;;17.00;5.03;;;16.60;99.30;;;;;;5006755;28;20026;-86
2021/08/16 04:33:39;;;;;;;14.10;5.00;;;16.60;99.30;;;;;;5010789;28;20032;-86
2021/08/16 04:36:04;;;;;;;15.32;5.88;;;16.50;99.30;;;;;;5010903;28;20038;-86
2021/08/16 04:38:30;;;;;;;13.85;6.10;;;16.50;99.30;;;;;;5011714;28;20080;-85
2021/08/16 04:40:55;;;;;;;19.45;6.68;;;16.50;99.40;;;;;;5016615;28;20120;-85
2021/08/16 04:43:22;;;;;;;19.42;6.82;;;16.50;99.40;;;;;;5015491;28;20088;-85
2021/08/16 04:45:47;;;;;;;15.38;6.68;;;16.50;99.40;;;;;;5014927;28;20034;-86
2021/08/16 04:48:13;;;;;;;15.07;7.25;;;16.50;99.40;;;;;;5014748;28;20517;-85
2021/08/16 04:50:39;;;;;;;21.48;8.18;;;16.40;99.40;;;;;;5016077;28;20029;-86
2021/08/16 04:53:04;;;;;;;13.00;6.97;;;16.50;99.50;;;;;;5017954;28;20029;-85
2021/08/16 04:55:30;;;;;;;21.40;9.13;;;16.50;99.50;;;;;;5014264;28;20041;-85
2021/08/16 04:57:56;;;;;;;19.90;9.10;;;16.40;99.50;;;;;;5013653;28;20106;-85
2021/08/16 05:00:26;;;;;;;22.63;9.80;;;16.40;99.60;;;;;;5015551;28;20022;-87
2021/08/16 05:02:53;;;;;;;15.13;8.95;;;16.50;99.60;;;;;;5012593;28;20389;-86
2021/08/16 05:05:19;;;;;;;21.48;10.43;;;16.50;99.60;;;;;;5012655;28;20029;-86
2021/08/16 05:07:52;;;;;;;19.38;10.40;;;16.50;99.60;;;;;;5004392;28;20046;-86
2021/08/16 05:10:19;;;;;;;15.27;9.82;;;16.50;99.60;;;;;;5007527;28;20053;-86
2021/08/16 05:12:45;;;;;;;23.42;11.73;;;16.50;99.60;;;;;;5011432;28;20032;-86
2021/08/16 05:15:11;;;;;;;22.80;11.60;;;16.60;99.70;;;;;;4996980;28;20140;-86
2021/08/16 05:17:38;;;;;;;22.65;12.02;;;16.60;99.60;;;;;;5014037;28;20049;-86
2021/08/16 05:20:06;;;;;;;22.27;11.20;;;16.70;99.60;;;;;;5002002;28;20022;-86
2021/08/16 05:22:33;;;;;;;22.58;11.43;;;16.60;99.60;;;;;;5013743;28;20038;-86
2021/08/16 05:24:58;;;;;;;22.90;12.85;;;16.70;99.60;;;;;;5005703;28;20026;-86
2021/08/16 05:27:24;;;;;;;22.75;12.55;;;16.70;99.60;;;;;;5009776;28;20031;-85
2021/08/16 05:29:49;;;;;;;22.30;12.02;;;16.70;99.80;;;;;;5003967;28;20014;-86
2021/08/16 05:32:16;;;;;;;24.15;12.25;;;16.80;99.50;;;;;;5007635;28;20041;-86
2021/08/16 05:34:43;;;;;;;16.55;12.05;;;16.80;99.50;;;;;;5013050;28;20887;-87
2021/08/16 05:37:09;;;;;;;24.33;13.90;;;16.80;99.50;;;;;;5011555;28;20120;-86
2021/08/16 05:39:34;;;;;;;26.15;12.93;;;16.90;99.50;;;;;;5014388;28;20113;-86
2021/08/16 05:42:01;;;;;;;18.90;11.60;;;16.90;99.40;;;;;;5014716;28;20032;-86
2021/08/16 05:44:27;;;;;;;26.83;13.80;;;16.90;99.70;;;;;;5014802;28;20482;-86
2021/08/16 05:46:53;;;;;;;25.63;15.20;;;16.90;99.30;;;;;;5008507;28;20093;-86
2021/08/16 05:49:18;;;;;;;25.08;13.88;;;17.00;99.30;;;;;;5010993;28;20367;-86
2021/08/16 05:51:44;;;;;;;28.60;13.52;;;17.00;99.20;;;;;;5012341;28;20114;-84
2021/08/16 05:54:09;;;;;;;19.48;13.77;;;17.10;99.20;;;;;;4998174;28;20058;-85
2021/08/16 05:56:35;;;;;;;21.00;13.93;;;17.10;99.10;;;;;;5008540;28;20486;-85
2021/08/16 05:59:00;;;;;;;23.98;13.82;;;17.10;99.10;;;;;;5013939;28;20018;-84
2021/08/16 06:01:26;;;;;;;24.15;14.35;;;17.20;99.00;;;;;;5014002;28;20046;-85
2021/08/16 06:03:51;;;;;;;21.95;13.50;;;17.20;98.90;;;;;;5000725;28;20030;-85
2021/08/16 06:06:17;;;;;;;25.33;13.85;;;17.30;98.90;;;;;;5006752;28;20050;-86
2021/08/16 06:08:43;;;;;;;20.33;14.15;;;17.30;98.80;;;;;;5013451;28;20034;-85
2021/08/16 06:11:08;;;;;;;19.80;15.30;;;17.30;98.80;;;;;;5011016;28;20037;-85
2021/08/16 06:13:34;;;;;;;21.42;14.77;;;17.30;99.10;;;;;;5023064;28;20022;-86
2021/08/16 06:15:59;;;;;;;24.55;16.00;;;17.30;98.80;;;;;;5013990;28;20050;-84
2021/08/16 06:18:25;;;;;;;27.35;16.75;;;17.30;98.80;;;;;;5013136;28;20029;-84
2021/08/16 06:20:51;;;;;;;21.42;15.23;;;17.40;98.80;;;;;;5010183;28;20056;-84
2021/08/16 06:23:16;;;;;;;24.05;15.38;;;17.40;98.80;;;;;;5012633;28;20030;-84
2021/08/16 06:25:42;;;;;;;24.08;16.15;;;17.40;98.80;;;;;;5014544;28;20022;-85
2021/08/16 06:28:07;;;;;;;25.02;14.68;;;17.40;98.70;;;;;;5013029;28;20040;-84
2021/08/16 06:30:34;;;;;;;32.30;17.10;;;17.40;98.70;;;;;;5003884;28;20040;-84
2021/08/16 06:32:59;;;;;;;19.17;15.40;;;17.50;98.70;;;;;;5012095;28;20026;-85
2021/08/16 06:35:25;;;;;;;24.58;15.75;;;17.50;98.80;;;;;;5008503;28;20390;-85
2021/08/16 06:37:51;;;;;;;25.90;16.85;;;17.50;98.80;;;;;;5009809;28;20033;-84
2021/08/16 06:40:17;;;;;;;25.00;15.70;;;17.50;98.80;;;;;;5011276;28;20548;-85
2021/08/16 06:42:42;;;;;;;25.30;16.52;;;17.40;98.90;;;;;;5002175;28;20022;-85
2021/08/16 06:45:08;;;;;;;24.10;16.50;;;17.40;99.10;;;;;;5012677;28;20041;-85
2021/08/16 06:47:34;;;;;;;26.38;16.65;;;17.40;99.30;;;;;;5011105;28;20022;-85
2021/08/16 06:49:59;;;;;;;24.80;17.42;;;17.40;99.50;;;;;;5007074;28;20581;-85
2021/08/16 06:52:25;;;;;;;23.38;15.65;;;17.30;99.70;;;;;;5004017;28;20022;-86
2021/08/16 06:54:51;;;;;;;24.10;17.15;;;17.20;99.90;;;;;;5012767;28;20436;-86
2021/08/16 06:57:16;;;;;;;25.40;18.63;;;17.20;99.90;;;;;;5012536;28;20037;-85
2021/08/16 06:59:42;;;;;;;23.63;19.27;;;17.10;99.90;;;;;;5011871;28;20030;-84
2021/08/16 07:02:08;;;;;;;24.83;18.05;;;17.00;99.90;;;;;;5010453;28;20038;-84
2021/08/16 07:04:35;;;;;;;23.60;18.60;;;16.90;99.90;;;;;;4997402;28;20187;-84
2021/08/16 07:07:01;;;;;;;25.50;20.35;;;16.90;99.90;;;;;;5011425;28;20074;-84
2021/08/16 07:09:26;;;;;;;25.95;20.60;;;16.90;99.90;;;;;;5010570;28;20479;-84
2021/08/16 07:11:53;;;;;;;31.50;22.05;;;16.90;99.90;;;;;;5010146;28;20080;-84
2021/08/16 07:14:20;;;;;;;29.55;21.98;;;16.90;99.90;;;;;;5011032;28;20037;-84
2021/08/16 07:16:45;;;;;;;29.52;21.55;;;16.90;99.90;;;;;;5011537;28;20038;-84
2021/08/16 07:19:11;;;;;;;25.55;20.85;;;17.00;99.90;;;;;;5011403;28;20088;-84
2021/08/16 07:21:37;;;;;;;29.20;21.27;;;17.00;99.90;;;;;;5006188;28;20030;-83
2021/08/16 07:24:03;;;;;;;28.33;20.73;;;17.00;99.90;;;;;;5000017;28;20026;-84
2021/08/16 07:26:28;;;;;;;30.45;21.00;;;17.10;99.90;;;;;;5013396;28;20032;-84
2021/08/16 07:28:54;;;;;;;24.42;19.00;;;17.10;99.90;;;;;;5012959;28;20030;-84
2021/08/16 07:31:19;;;;;;;25.17;18.20;;;17.10;99.90;;;;;;5009911;28;20037;-84
2021/08/16 07:33:45;;;;;;;21.35;14.57;;;17.10;99.90;;;;;;5009518;28;20115;-83
2021/08/16 07:36:11;;;;;;;13.43;12.02;;;17.10;99.90;;;;;;5009830;28;20030;-84
2021/08/16 07:38:36;;;;;;;11.18;9.68;;;17.10;99.90;;;;;;5002301;28;20065;-84
2021/08/16 07:41:02;;;;;;;10.75;9.60;;;17.10;99.90;;;;;;5011411;28;20156;-84
2021/08/16 07:43:28;;;;;;;10.80;7.93;;;17.10;99.90;;;;;;5010270;28;20034;-85
2021/08/16 07:45:53;;;;;;;7.60;6.45;;;17.10;99.90;;;;;;5013179;28;20022;-86
2021/08/16 07:48:19;;;;;;;7.93;6.32;;;17.10;99.90;;;;;;5011171;28;20120;-86
2021/08/16 07:50:44;;;;;;;10.00;7.07;;;17.10;99.90;;;;;;5012511;28;20053;-85
2021/08/16 07:53:10;;;;;;;9.85;5.68;;;16.90;99.90;;;;;;5008023;28;20049;-86
2021/08/16 07:55:36;;;;;;;8.23;4.93;;;16.90;99.90;;;;;;5011070;28;20025;-87
2021/08/16 07:58:02;;;;;;;7.60;3.25;;;16.70;99.90;;;;;;5005164;28;20120;-87
2021/08/16 08:00:27;;;;;;;8.05;2.10;;;16.50;99.90;;;;;;5009639;28;20108;-87
2021/08/16 08:02:53;;;;;;;8.77;2.72;;;16.30;99.90;;;;;;5013619;28;20022;-87
2021/08/16 08:05:23;;;;;;;7.90;2.40;;;16.20;99.90;;;;;;5013528;28;20076;-87
2021/08/16 08:07:49;;;;;;;9.10;3.17;;;16.10;99.90;;;;;;5012715;28;20050;-86
2021/08/16 08:10:17;;;;;;;7.63;2.67;;;16.00;99.90;;;;;;5013633;28;20022;-87
2021/08/16 08:12:44;;;;;;;6.40;2.55;;;16.10;99.90;;;;;;5015870;28;20036;-88
2021/08/16 08:15:11;;;;;;;6.78;2.70;;;16.20;99.90;;;;;;5011582;28;20026;-87
2021/08/16 08:17:37;;;;;;;11.05;2.83;;;16.30;99.90;;;;;;5011064;28;20418;-87
2021/08/16 08:20:05;;;;;;;9.48;2.30;;;16.40;99.90;;;;;;4993013;28;20023;-88
2021/08/16 08:22:31;;;;;;;5.55;1.77;;;16.40;99.90;;;;;;5009475;28;20045;-87
2021/08/16 08:24:56;;;;;;;5.38;1.48;;;16.30;99.90;;;;;;5013189;28;20223;-88
2021/08/16 08:27:22;;;;;;;5.07;1.50;;;16.20;99.90;;;;;;5013881;28;20029;-88
2021/08/16 08:29:48;;;;;;;6.88;1.60;;;16.00;99.90;;;;;;5012816;28;20490;-88
2021/08/16 08:32:14;;;;;;;7.53;2.30;;;15.80;99.90;;;;;;5002045;28;20033;-87
2021/08/16 08:34:40;;;;;;;8.00;2.83;;;15.70;99.90;;;;;;5012860;28;20018;-87
2021/08/16 08:37:14;;;;;;;5.80;2.05;;;15.60;99.90;;;;;;5011971;28;20042;-87
2021/08/16 08:39:41;;;;;;;6.40;2.72;;;15.60;99.90;;;;;;4999476;28;20023;-87
2021/08/16 08:42:11;;;;;;;6.28;3.10;;;15.60;99.90;;;;;;5008355;28;20041;-88
2021/08/16 08:44:36;;;;;;;7.75;2.83;;;15.60;99.90;;;;;;4997835;28;20018;-88
2021/08/16 08:47:03;;;;;;;7.13;3.00;;;15.70;99.90;;;;;;5016023;28;20493;-88
2021/08/16 08:49:29;;;;;;;7.43;2.38;;;15.80;99.90;;;;;;5017804;28;20049;-88
2021/08/16 08:51:55;;;;;;;10.02;2.80;;;15.90;99.90;;;;;;5012216;28;20022;-88
2021/08/16 08:54:21;;;;;;;7.95;2.92;;;15.90;99.90;;;;;;5011323;28;20401;-88
2021/08/16 08:56:48;;;;;;;7.57;3.65;;;16.00;99.90;;;;;;5013102;28;20061;-88
2021/08/16 08:59:15;;;;;;;10.60;3.92;;;16.10;99.90;;;;;;5011313;28;20105;-89
2021/08/16 09:01:54;;;;;;;10.18;3.08;;;16.20;99.90;;;;;;4993172;28;20069;-87
2021/08/16 09:04:23;;;;;;;10.73;3.53;;;16.40;99.90;;;;;;5008563;28;20061;-89
2021/08/16 09:06:48;;;;;;;12.23;3.25;;;16.60;99.90;;;;;;5013132;28;20510;-87
2021/08/16 09:09:18;;;;;;;8.45;2.80;;;16.80;99.90;;;;;;5014944;28;20033;-87
2021/08/16 09:11:51;;;;;;;6.50;3.10;;;16.90;99.90;;;;;;5016309;28;20100;-85
2021/08/16 09:14:18;;;;;;;9.80;3.08;;;17.10;99.90;;;;;;5012138;28;20076;-87
2021/08/16 09:16:47;;;;;;;6.00;2.40;;;17.20;99.90;;;;;;5013185;28;20042;-87
2021/08/16 09:19:21;;;;;;;7.65;2.35;;;17.20;99.90;;;;;;5014686;28;20080;-85
2021/08/16 09:22:02;;;;;;;6.80;2.72;;;17.20;99.90;;;;;;5014700;28;20099;-86
2021/08/16 09:24:33;;;;;;;7.72;2.58;;;17.20;99.90;;;;;;5011316;28;20037;-85
2021/08/16 09:27:12;;;;;;;9.38;2.95;;;17.20;99.90;;;;;;4996235;28;20081;-85
2021/08/16 09:29:50;;;;;;;7.63;2.35;;;17.30;99.90;;;;;;5005690;28;20065;-85
2021/08/16 09:32:17;;;;;;;7.03;2.15;;;17.30;99.90;;;;;;4997421;28;20117;-86
2021/08/16 09:34:48;;;;;;;6.25;1.95;;;17.30;99.90;;;;;;5013221;28;20036;-86
2021/08/16 09:37:20;;;;;;;5.00;2.00;;;17.20;99.90;;;;;;5015110;28;20124;-85
2021/08/16 09:40:00;;;;;;;4.82;1.63;;;17.20;99.90;;;;;;5005717;28;20064;-85
2021/08/16 09:42:27;;;;;;;7.88;1.92;;;17.10;99.90;;;;;;5015287;28;20162;-85
2021/08/16 09:44:57;;;;;;;5.10;2.15;;;17.00;99.90;;;;;;5015201;28;20487;-85
2021/08/16 09:47:22;;;;;;;12.05;2.78;;;17.00;99.90;;;;;;5014963;28;20497;-85
2021/08/16 09:50:00;;;;;;;8.13;2.45;;;16.90;99.90;;;;;;5014469;28;20031;-85
2021/08/16 09:52:30;;;;;;;6.97;2.65;;;16.80;99.80;;;;;;4996010;28;20026;-86
2021/08/16 09:54:57;;;;;;;6.57;2.30;;;16.80;99.90;;;;;;4996273;28;20030;-85
2021/08/16 09:57:23;;;;;;;9.20;2.80;;;16.80;99.40;;;;;;5005345;28;20034;-85
2021/08/16 09:59:49;;;;;;;7.05;2.15;;;16.70;99.30;;;;;;5015078;28;20029;-85
2021/08/16 10:02:16;;;;;;;8.75;3.15;;;16.80;99.40;;;;;;5013514;28;20033;-85
2021/08/16 10:04:42;;;;;;;9.60;2.70;;;16.70;99.00;;;;;;5015230;28;20474;-85
2021/08/16 10:07:10;;;;;;;12.75;4.00;;;16.80;98.80;;;;;;5010672;28;20058;-86
2021/08/16 10:09:36;;;;;;;9.65;3.45;;;16.80;98.80;;;;;;5014979;28;20022;-87
2021/08/16 10:12:04;;;;;;;12.27;3.72;;;16.80;98.60;;;;;;5010763;28;20064;-85
2021/08/16 10:14:36;;;;;;;6.95;3.28;;;16.90;98.60;;;;;;5014367;28;20395;-85
2021/08/16 10:17:04;;;;;;;11.83;3.83;;;16.90;98.40;;;;;;5012902;28;20117;-85
2021/08/16 10:19:38;;;;;;;11.68;3.90;;;17.00;98.30;;;;;;5012484;28;20295;-85
2021/08/16 10:22:06;;;;;;;12.18;3.67;;;17.10;98.20;;;;;;5012503;28;20033;-85
2021/08/16 10:24:32;;;;;;;7.78;3.75;;;17.20;98.10;;;;;;5013764;28;20057;-85
2021/08/16 10:27:08;;;;;;;9.98;4.35;;;17.40;98.00;;;;;;5014770;28;20410;-85
2021/08/16 10:29:36;;;;;;;11.02;4.55;;;17.70;97.80;;;;;;5014176;28;20029;-84
2021/08/16 10:32:02;;;;;;;10.98;4.55;;;17.80;97.10;;;;;;5007765;28;20106;-85
2021/08/16 10:34:38;;;;;;;9.70;4.28;;;17.90;96.80;;;;;;4995526;28;20548;-85
2021/08/16 10:37:09;;;;;;;12.52;4.70;;;17.90;96.10;;;;;;5005994;28;20132;-85
2021/08/16 10:39:36;;;;;;;10.63;5.07;;;18.00;94.60;;;;;;5013763;28;20022;-85
2021/08/16 10:42:10;;;;;;;12.50;4.90;;;18.00;93.60;;;;;;5014070;28;20041;-85
2021/08/16 10:44:47;;;;;;;15.27;5.32;;;18.20;94.10;;;;;;5009224;28;20105;-84
2021/08/16 10:47:30;;;;;;;17.08;5.50;;;18.40;93.30;;;;;;5010998;28;20477;-85
2021/08/16 10:50:08;;;;;;;12.55;5.03;;;18.50;93.30;;;;;;4999613;28;20151;-85
2021/08/16 10:52:36;;;;;;;14.23;4.45;;;18.60;93.10;;;;;;5011662;28;20029;-84
2021/08/16 10:55:16;;;;;;;13.35;4.82;;;18.60;92.80;;;;;;5012360;28;20068;-85
2021/08/16 10:57:43;;;;;;;16.02;5.18;;;18.60;92.50;;;;;;5012096;28;20034;-85
2021/08/16 11:00:12;;;;;;;11.55;4.78;;;18.70;92.20;;;;;;5011975;28;20097;-84
2021/08/16 11:02:40;;;;;;;11.07;4.75;;;18.70;91.90;;;;;;5011517;28;20077;-83
2021/08/16 11:05:07;;;;;;;14.57;5.32;;;18.80;91.80;;;;;;5009688;28;20117;-83
2021/08/16 11:07:33;;;;;;;10.18;4.38;;;18.90;91.80;;;;;;5011392;28;20046;-84
2021/08/16 11:10:05;;;;;;;9.65;4.35;;;18.90;91.70;;;;;;5010598;28;20041;-83
2021/08/16 11:12:45;;;;;;;9.82;4.90;;;18.80;91.70;;;;;;5000951;28;20224;-83
2021/08/16 11:15:12;;;;;;;10.48;4.53;;;18.70;91.30;;;;;;5014950;28;20034;-84
2021/08/16 11:17:38;;;;;;;10.48;4.50;;;18.50;91.20;;;;;;5013814;28;20232;-82
2021/08/16 11:20:07;;;;;;;9.85;3.58;;;18.30;91.20;;;;;;5011227;28;20554;-84
2021/08/16 11:22:33;;;;;;;9.80;3.90;;;18.20;91.20;;;;;;5012638;28;20056;-84
2021/08/16 11:25:05;;;;;;;9.63;3.85;;;18.00;91.50;;;;;;5013226;28;20022;-84
2021/08/16 11:27:30;;;;;;;11.07;4.00;;;17.90;91.70;;;;;;5013497;28;20088;-83
2021/08/16 11:30:04;;;;;;;10.02;3.70;;;17.80;91.90;;;;;;5012139;28;20022;-84
2021/08/16 11:32:32;;;;;;;10.00;4.85;;;17.80;92.20;;;;;;4997389;28;20429;-84
2021/08/16 11:34:58;;;;;;;7.90;3.50;;;17.70;92.40;;;;;;5011136;28;20030;-82
2021/08/16 11:37:29;;;;;;;11.23;4.30;;;17.60;92.70;;;;;;5010183;28;20046;-83
2021/08/16 11:39:56;;;;;;;11.77;4.43;;;17.60;93.20;;;;;;5011333;28;20068;-83
2021/08/16 11:42:23;;;;;;;10.27;4.20;;;17.60;93.60;;;;;;5007606;28;20062;-82
2021/08/16 11:45:09;;;;;;;7.13;2.72;;;17.70;93.20;;;;;;5001305;28;20037;-83
2021/08/16 11:47:35;;;;;;;8.35;2.17;;;17.90;93.10;;;;;;5003452;28;20065;-83
2021/08/16 11:50:05;;;;;;;8.10;3.03;;;18.00;92.30;;;;;;5011442;28;20029;-84
2021/08/16 11:52:30;;;;;;;7.60;2.70;;;18.10;91.40;;;;;;5008347;28;20025;-83
2021/08/16 11:54:58;;;;;;;8.60;2.70;;;18.20;91.20;;;;;;5010909;28;20033;-83
2021/08/16 11:57:25;;;;;;;6.50;2.60;;;18.30;91.20;;;;;;5010741;28;20040;-84
2021/08/16 11:59:55;;;;;;;7.28;3.17;;;18.40;90.30;;;;;;5012125;28;20032;-84
2021/08/16 12:02:22;;;;;;;5.40;2.20;;;18.40;90.30;;;;;;5010257;28;20528;-83
2021/08/16 12:04:49;;;;;;;4.88;1.48;;;18.40;90.40;;;;;;5011843;28;20367;-83
2021/08/16 12:07:21;;;;;;;4.85;2.15;;;18.50;90.20;;;;;;5006980;28;20042;-83
2021/08/16 12:09:48;;;;;;;7.20;2.60;;;18.50;89.50;;;;;;5008362;28;20052;-84
2021/08/16 12:12:18;;;;;;;5.63;2.67;;;18.40;89.10;;;;;;5008396;28;20109;-84
2021/08/16 12:14:43;;;;;;;6.55;2.85;;;18.30;89.30;;;;;;5009626;28;20030;-84
2021/08/16 12:17:09;;;;;;;5.78;1.75;;;18.00;90.00;;;;;;5010365;28;20512;-84
2021/08/16 12:19:35;;;;;;;5.55;1.48;;;17.70;90.80;;;;;;5010530;28;20014;-84
2021/08/16 12:22:08;;;;;;;5.70;1.48;;;17.20;91.70;;;;;;5004182;28;20030;-85
2021/08/16 12:24:36;;;;;;;7.35;1.40;;;16.70;92.40;;;;;;5010681;28;20022;-84
2021/08/16 12:27:04;;;;;;;7.07;1.83;;;16.50;93.00;;;;;;5010104;28;20037;-84
2021/08/16 12:29:39;;;;;;;11.88;1.48;;;16.30;93.50;;;;;;5008234;28;20026;-84
2021/08/16 12:32:22;;;;;;;11.98;1.92;;;16.30;94.00;;;;;;5009979;28;20026;-84
2021/08/16 12:34:49;;;;;;;7.43;1.52;;;16.20;94.30;;;;;;4991961;28;20386;-84
2021/08/16 12:37:30;;;;;;;10.55;2.72;;;16.30;94.40;;;;;;4994888;28;20037;-84